sensor_id;sensor_type;location;lat;lon;timestamp;pressure;altitude;pressure_sealevel;temperature;humidity
47763;BME280;33526;42.690;23.322;2023-12-29T00:00:02;95772.69;;;3.09;100.00
47763;BME280;33526;42.690;23.322;2023-12-29T00:02:28;95574.50;;;1.79;100.00
47763;BME280;33526;42.690;23.322;2023-12-29T00:04:54;95666.94;;;2.31;100.00
47763;BME280;33526;42.690;23.322;2023-12-29T00:07:21;95721.16;;;2.70;100.00
47763;BME280;33526;42.690;23.322;2023-12-29T00:09:47;95567.84;;;1.66;100.00
47763;BME280;33526;42.690;23.322;2023-12-29T00:12:12;95773.88;;;3.08;100.00
47763;BME280;33526;42.690;23.322;2023-12-29T00:14:42;95784.16;;;3.03;100.00
47763;BME280;33526;42.690;23.322;2023-12-29T00:17:09;95782.56;;;3.02;100.00
47763;BME280;33526;42.690;23.322;2023-12-29T00:19:35;95552.91;;;1.52;100.00
47763;BME280;33526;42.690;23.322;2023-12-29T00:22:00;95611.84;;;2.09;100.00
47763;BME280;33526;42.690;23.322;2023-12-29T00:24:29;95641.75;;;2.14;100.00
47763;BME280;33526;42.690;23.322;2023-12-29T00:27:09;95772.38;;;2.92;100.00
47763;BME280;33526;42.690;23.322;2023-12-29T00:29:36;95632.34;;;2.01;100.00
47763;BME280;33526;42.690;23.322;2023-12-29T00:32:02;95637.09;;;1.97;100.00
47763;BME280;33526;42.690;23.322;2023-12-29T00:34:29;95767.66;;;2.89;100.00
47763;BME280;33526;42.690;23.322;2023-12-29T00:36:54;95638.63;;;2.08;100.00
47763;BME280;33526;42.690;23.322;2023-12-29T00:39:20;95738.59;;;2.59;100.00
47763;BME280;33526;42.690;23.322;2023-12-29T00:41:54;95585.19;;;1.63;100.00
47763;BME280;33526;42.690;23.322;2023-12-29T00:44:22;95555.31;;;1.43;100.00
47763;BME280;33526;42.690;23.322;2023-12-29T00:46:51;95718.84;;;2.57;100.00
47763;BME280;33526;42.690;23.322;2023-12-29T00:49:16;95759.78;;;2.84;100.00
47763;BME280;33526;42.690;23.322;2023-12-29T00:51:43;95617.81;;;1.89;100.00
47763;BME280;33526;42.690;23.322;2023-12-29T00:54:09;95766.13;;;2.74;100.00
47763;BME280;33526;42.690;23.322;2023-12-29T00:56:34;95761.44;;;2.63;100.00
47763;BME280;33526;42.690;23.322;2023-12-29T00:59:00;95646.56;;;1.88;100.00
47763;BME280;33526;42.690;23.322;2023-12-29T01:01:25;95595.47;;;1.51;100.00
47763;BME280;33526;42.690;23.322;2023-12-29T01:03:51;95608.78;;;1.64;100.00
47763;BME280;33526;42.690;23.322;2023-12-29T01:06:20;95589.16;;;1.40;100.00
47763;BME280;33526;42.690;23.322;2023-12-29T01:08:46;95622.19;;;1.65;100.00
47763;BME280;33526;42.690;23.322;2023-12-29T01:11:11;95619.41;;;1.69;100.00
47763;BME280;33526;42.690;23.322;2023-12-29T01:13:37;95561.63;;;1.33;100.00
47763;BME280;33526;42.690;23.322;2023-12-29T01:16:03;95748.06;;;2.58;100.00
47763;BME280;33526;42.690;23.322;2023-12-29T01:18:29;95752.78;;;2.61;100.00
47763;BME280;33526;42.690;23.322;2023-12-29T01:20:54;95541.59;;;1.00;100.00
47763;BME280;33526;42.690;23.322;2023-12-29T01:23:20;95606.47;;;1.51;100.00
47763;BME280;33526;42.690;23.322;2023-12-29T01:25:45;95651.69;;;1.79;100.00
47763;BME280;33526;42.690;23.322;2023-12-29T01:28:11;95748.03;;;2.65;100.00
47763;BME280;33526;42.690;23.322;2023-12-29T01:30:37;95753.13;;;2.71;100.00
47763;BME280;33526;42.690;23.322;2023-12-29T01:33:03;95647.72;;;1.98;100.00
47763;BME280;33526;42.690;23.322;2023-12-29T01:35:28;95504.25;;;0.99;100.00
47763;BME280;33526;42.690;23.322;2023-12-29T01:37:55;95685.88;;;2.14;100.00
47763;BME280;33526;42.690;23.322;2023-12-29T01:40:22;95579.72;;;1.41;100.00
47763;BME280;33526;42.690;23.322;2023-12-29T01:42:48;95639.53;;;1.69;100.00
47763;BME280;33526;42.690;23.322;2023-12-29T01:45:23;95678.09;;;1.91;100.00
47763;BME280;33526;42.690;23.322;2023-12-29T01:47:49;95620.66;;;1.46;100.00
47763;BME280;33526;42.690;23.322;2023-12-29T01:50:18;95571.88;;;1.25;100.00
47763;BME280;33526;42.690;23.322;2023-12-29T01:52:45;95548.69;;;1.01;100.00
47763;BME280;33526;42.690;23.322;2023-12-29T01:55:17;95537.28;;;0.88;100.00
47763;BME280;33526;42.690;23.322;2023-12-29T01:57:43;95538.06;;;0.96;100.00
47763;BME280;33526;42.690;23.322;2023-12-29T02:00:11;95643.84;;;1.63;100.00
47763;BME280;33526;42.690;23.322;2023-12-29T02:02:37;95506.22;;;0.66;100.00
47763;BME280;33526;42.690;23.322;2023-12-29T02:05:03;95688.72;;;1.78;100.00
47763;BME280;33526;42.690;23.322;2023-12-29T02:07:28;95719.81;;;2.04;100.00
47763;BME280;33526;42.690;23.322;2023-12-29T02:09:59;95631.69;;;1.53;100.00
47763;BME280;33526;42.690;23.322;2023-12-29T02:12:26;95682.81;;;1.83;100.00
47763;BME280;33526;42.690;23.322;2023-12-29T02:14:52;95506.59;;;0.83;100.00
47763;BME280;33526;42.690;23.322;2023-12-29T02:17:35;95602.53;;;1.45;100.00
47763;BME280;33526;42.690;23.322;2023-12-29T02:20:05;95643.41;;;1.86;100.00
47763;BME280;33526;42.690;23.322;2023-12-29T02:22:32;95484.16;;;0.88;100.00
47763;BME280;33526;42.690;23.322;2023-12-29T02:24:58;95555.28;;;1.47;100.00
47763;BME280;33526;42.690;23.322;2023-12-29T02:32:33;95556.91;;;1.37;100.00
47763;BME280;33526;42.690;23.322;2023-12-29T02:35:02;95565.19;;;1.23;100.00
47763;BME280;33526;42.690;23.322;2023-12-29T02:37:29;95652.88;;;1.78;100.00
47763;BME280;33526;42.690;23.322;2023-12-29T02:39:59;95664.72;;;1.75;100.00
47763;BME280;33526;42.690;23.322;2023-12-29T02:42:25;95578.97;;;1.12;100.00
47763;BME280;33526;42.690;23.322;2023-12-29T02:44:50;95555.38;;;0.79;100.00
47763;BME280;33526;42.690;23.322;2023-12-29T02:47:17;95698.22;;;1.48;100.00
47763;BME280;33526;42.690;23.322;2023-12-29T02:49:44;95496.38;;;0.29;100.00
47763;BME280;33526;42.690;23.322;2023-12-29T02:52:10;95554.59;;;0.64;100.00
47763;BME280;33526;42.690;23.322;2023-12-29T02:54:36;95553.81;;;0.56;100.00
47763;BME280;33526;42.690;23.322;2023-12-29T02:57:01;95463.75;;;0.03;100.00
47763;BME280;33526;42.690;23.322;2023-12-29T02:59:27;95693.88;;;1.55;100.00
47763;BME280;33526;42.690;23.322;2023-12-29T03:01:52;95545.94;;;0.51;100.00
47763;BME280;33526;42.690;23.322;2023-12-29T03:04:18;95521.16;;;0.40;100.00
47763;BME280;33526;42.690;23.322;2023-12-29T03:06:44;95540.03;;;0.45;100.00
47763;BME280;33526;42.690;23.322;2023-12-29T03:09:11;95662.38;;;1.45;100.00
47763;BME280;33526;42.690;23.322;2023-12-29T03:11:36;95483.78;;;0.28;100.00
47763;BME280;33526;42.690;23.322;2023-12-29T03:14:02;95516.44;;;0.55;100.00
47763;BME280;33526;42.690;23.322;2023-12-29T03:16:28;95596.28;;;0.94;100.00
47763;BME280;33526;42.690;23.322;2023-12-29T03:18:53;95673.41;;;1.52;100.00
47763;BME280;33526;42.690;23.322;2023-12-29T03:21:19;95545.94;;;0.58;100.00
47763;BME280;33526;42.690;23.322;2023-12-29T03:23:45;95514.44;;;0.37;100.00
47763;BME280;33526;42.690;23.322;2023-12-29T03:26:10;95602.56;;;0.95;100.00
47763;BME280;33526;42.690;23.322;2023-12-29T03:28:36;95671.06;;;1.36;100.00
47763;BME280;33526;42.690;23.322;2023-12-29T03:31:02;95671.81;;;1.40;100.00
47763;BME280;33526;42.690;23.322;2023-12-29T03:33:27;95584.88;;;0.78;100.00
47763;BME280;33526;42.690;23.322;2023-12-29T03:35:54;95603.38;;;1.06;100.00
47763;BME280;33526;42.690;23.322;2023-12-29T03:38:19;95569.53;;;0.91;100.00
47763;BME280;33526;42.690;23.322;2023-12-29T03:40:45;95390.63;;;-0.27;100.00
47763;BME280;33526;42.690;23.322;2023-12-29T03:43:10;95482.63;;;0.26;100.00
47763;BME280;33526;42.690;23.322;2023-12-29T03:45:36;95664.38;;;1.33;100.00
47763;BME280;33526;42.690;23.322;2023-12-29T03:48:02;95674.19;;;1.27;100.00
47763;BME280;33526;42.690;23.322;2023-12-29T03:50:28;95529.38;;;0.15;100.00
47763;BME280;33526;42.690;23.322;2023-12-29T03:52:55;95515.25;;;0.27;100.00
47763;BME280;33526;42.690;23.322;2023-12-29T03:55:22;95636.44;;;1.10;100.00
47763;BME280;33526;42.690;23.322;2023-12-29T03:57:47;95488.09;;;0.04;100.00
47763;BME280;33526;42.690;23.322;2023-12-29T04:00:14;95543.56;;;0.46;100.00
47763;BME280;33526;42.690;23.322;2023-12-29T04:02:39;95514.44;;;0.37;100.00
47763;BME280;33526;42.690;23.322;2023-12-29T04:05:07;95673.03;;;1.43;100.00
47763;BME280;33526;42.690;23.322;2023-12-29T04:07:33;95598.66;;;0.92;100.00
47763;BME280;33526;42.690;23.322;2023-12-29T04:10:00;95414.19;;;-0.30;100.00
47763;BME280;33526;42.690;23.322;2023-12-29T04:12:26;95415.78;;;-0.25;100.00
47763;BME280;33526;42.690;23.322;2023-12-29T04:14:52;95674.19;;;1.38;100.00
47763;BME280;33526;42.690;23.322;2023-12-29T04:17:17;95541.97;;;0.37;100.00
47763;BME280;33526;42.690;23.322;2023-12-29T04:19:44;95609.28;;;0.94;100.00
47763;BME280;33526;42.690;23.322;2023-12-29T04:22:13;95678.16;;;1.37;100.00
47763;BME280;33526;42.690;23.322;2023-12-29T04:24:40;95399.66;;;-0.45;100.00
47763;BME280;33526;42.690;23.322;2023-12-29T04:27:07;95431.09;;;-0.17;100.00
47763;BME280;33526;42.690;23.322;2023-12-29T04:29:35;95564.81;;;0.78;100.00
47763;BME280;33526;42.690;23.322;2023-12-29T04:32:01;95527.84;;;0.50;100.00
47763;BME280;33526;42.690;23.322;2023-12-29T04:34:26;95522.34;;;0.61;100.00
47763;BME280;33526;42.690;23.322;2023-12-29T04:36:52;95527.84;;;0.64;100.00
47763;BME280;33526;42.690;23.322;2023-12-29T04:39:18;95548.31;;;0.63;100.00
47763;BME280;33526;42.690;23.322;2023-12-29T04:41:43;95694.69;;;1.62;100.00
47763;BME280;33526;42.690;23.322;2023-12-29T04:44:09;95594.69;;;0.83;100.00
47763;BME280;33526;42.690;23.322;2023-12-29T04:46:35;95481.03;;;0.21;100.00
47763;BME280;33526;42.690;23.322;2023-12-29T04:49:01;95536.47;;;0.48;100.00
47763;BME280;33526;42.690;23.322;2023-12-29T04:51:27;95496.38;;;0.29;100.00
47763;BME280;33526;42.690;23.322;2023-12-29T04:53:54;95599.44;;;0.93;100.00
47763;BME280;33526;42.690;23.322;2023-12-29T04:56:23;95538.06;;;0.53;100.00
47763;BME280;33526;42.690;23.322;2023-12-29T04:58:51;95580.16;;;0.82;100.00
47763;BME280;33526;42.690;23.322;2023-12-29T05:01:17;95665.53;;;1.36;100.00
47763;BME280;33526;42.690;23.322;2023-12-29T05:03:43;95539.63;;;0.54;100.00
47763;BME280;33526;42.690;23.322;2023-12-29T05:06:08;95587.25;;;0.80;100.00
47763;BME280;33526;42.690;23.322;2023-12-29T05:08:34;95505.41;;;0.26;100.00
47763;BME280;33526;42.690;23.322;2023-12-29T05:11:00;95480.25;;;0.06;100.00
47763;BME280;33526;42.690;23.322;2023-12-29T05:13:28;95656.09;;;1.30;100.00
47763;BME280;33526;42.690;23.322;2023-12-29T05:15:55;95498.31;;;0.29;100.00
47763;BME280;33526;42.690;23.322;2023-12-29T05:18:22;95573.47;;;0.69;100.00
47763;BME280;33526;42.690;23.322;2023-12-29T05:20:48;95572.66;;;0.61;100.00
47763;BME280;33526;42.690;23.322;2023-12-29T05:23:14;95481.41;;;0.02;100.00
47763;BME280;33526;42.690;23.322;2023-12-29T05:25:39;95538.81;;;0.39;100.00
47763;BME280;33526;42.690;23.322;2023-12-29T05:28:07;95462.47;;;-0.43;100.00
47763;BME280;33526;42.690;23.322;2023-12-29T05:30:33;95463.59;;;-0.55;100.00
47763;BME280;33526;42.690;23.322;2023-12-29T05:33:00;95660.34;;;0.66;100.00
47763;BME280;33526;42.690;23.322;2023-12-29T05:35:25;95586.31;;;0.11;100.00
47763;BME280;33526;42.690;23.322;2023-12-29T05:37:51;95578.78;;;-0.14;100.00
47763;BME280;33526;42.690;23.322;2023-12-29T05:40:17;95477.19;;;-0.84;100.00
47763;BME280;33526;42.690;23.322;2023-12-29T05:42:42;95342.78;;;-1.50;100.00
47763;BME280;33526;42.690;23.322;2023-12-29T05:45:09;95678.06;;;0.65;100.00
47763;BME280;33526;42.690;23.322;2023-12-29T05:47:34;95520.53;;;-0.45;100.00
47763;BME280;33526;42.690;23.322;2023-12-29T05:50:00;95546.56;;;-0.17;100.00
47763;BME280;33526;42.690;23.322;2023-12-29T05:52:27;95605.63;;;0.36;100.00
47763;BME280;33526;42.690;23.322;2023-12-29T05:54:54;95538.75;;;-0.01;100.00
47763;BME280;33526;42.690;23.322;2023-12-29T05:57:19;95575.78;;;0.34;100.00
47763;BME280;33526;42.690;23.322;2023-12-29T05:59:45;95600.16;;;0.50;100.00
47763;BME280;33526;42.690;23.322;2023-12-29T06:02:11;95526.59;;;0.01;100.00
47763;BME280;33526;42.690;23.322;2023-12-29T06:04:36;95444.34;;;-0.62;100.00
47763;BME280;33526;42.690;23.322;2023-12-29T06:07:03;95500.94;;;-0.40;100.00
47763;BME280;33526;42.690;23.322;2023-12-29T06:09:29;95449.00;;;-0.73;100.00
47763;BME280;33526;42.690;23.322;2023-12-29T06:11:55;95428.47;;;-0.98;100.00
47763;BME280;33526;42.690;23.322;2023-12-29T06:14:21;95588.28;;;0.14;100.00
47763;BME280;33526;42.690;23.322;2023-12-29T06:16:46;95542.66;;;-0.12;100.00
47763;BME280;33526;42.690;23.322;2023-12-29T06:19:12;95501.72;;;-0.35;100.00
47763;BME280;33526;42.690;23.322;2023-12-29T06:21:44;95567.53;;;0.31;100.00
47763;BME280;33526;42.690;23.322;2023-12-29T06:24:11;95567.88;;;0.22;100.00
47763;BME280;33526;42.690;23.322;2023-12-29T06:26:37;95619.88;;;0.67;100.00
47763;BME280;33526;42.690;23.322;2023-12-29T06:29:08;95622.22;;;0.75;100.00
47763;BME280;33526;42.690;23.322;2023-12-29T06:31:33;95516.00;;;0.10;100.00
47763;BME280;33526;42.690;23.322;2023-12-29T06:33:59;95398.00;;;-0.74;100.00
47763;BME280;33526;42.690;23.322;2023-12-29T06:36:25;95549.03;;;0.28;100.00
47763;BME280;33526;42.690;23.322;2023-12-29T06:38:51;95686.00;;;1.06;100.00
47763;BME280;33526;42.690;23.322;2023-12-29T06:41:18;95620.28;;;0.80;100.00
47763;BME280;33526;42.690;23.322;2023-12-29T06:43:44;95505.78;;;0.21;100.00
47763;BME280;33526;42.690;23.322;2023-12-29T06:46:11;95516.03;;;0.24;100.00
47763;BME280;33526;42.690;23.322;2023-12-29T06:48:39;95563.22;;;0.55;100.00
47763;BME280;33526;42.690;23.322;2023-12-29T06:51:05;95466.84;;;-0.10;100.00
47763;BME280;33526;42.690;23.322;2023-12-29T06:53:30;95453.09;;;-0.10;100.00
47763;BME280;33526;42.690;23.322;2023-12-29T06:55:56;95523.13;;;0.57;100.00
47763;BME280;33526;42.690;23.322;2023-12-29T06:58:22;95644.28;;;1.40;100.00
47763;BME280;33526;42.690;23.322;2023-12-29T07:00:47;95540.44;;;0.72;100.00
47763;BME280;33526;42.690;23.322;2023-12-29T07:03:14;95526.66;;;0.44;100.00
47763;BME280;33526;42.690;23.322;2023-12-29T07:05:40;95539.63;;;0.61;100.00
47763;BME280;33526;42.690;23.322;2023-12-29T07:08:06;95634.47;;;1.25;100.00
47763;BME280;33526;42.690;23.322;2023-12-29T07:10:31;95575.41;;;1.01;100.00
47763;BME280;33526;42.690;23.322;2023-12-29T07:12:57;95670.63;;;1.70;100.00
47763;BME280;33526;42.690;23.322;2023-12-29T07:15:22;95679.69;;;1.67;100.00
47763;BME280;33526;42.690;23.322;2023-12-29T07:17:48;95555.38;;;0.86;100.00
47763;BME280;33526;42.690;23.322;2023-12-29T07:20:14;95670.25;;;1.57;100.00
47763;BME280;33526;42.690;23.322;2023-12-29T07:22:40;95510.94;;;0.76;100.00
47763;BME280;33526;42.690;23.322;2023-12-29T07:25:06;95563.22;;;1.12;100.00
47763;BME280;33526;42.690;23.322;2023-12-29T07:27:31;95456.28;;;0.53;100.00
47763;BME280;33526;42.690;23.322;2023-12-29T07:29:57;95560.44;;;1.41;100.00
47763;BME280;33526;42.690;23.322;2023-12-29T07:32:24;95484.53;;;1.01;100.00
47763;BME280;33526;42.690;23.322;2023-12-29T07:34:50;95655.13;;;2.16;100.00
47763;BME280;33526;42.690;23.322;2023-12-29T07:37:15;95408.72;;;0.60;100.00
47763;BME280;33526;42.690;23.322;2023-12-29T07:39:41;95509.66;;;1.35;100.00
47763;BME280;33526;42.690;23.322;2023-12-29T07:42:08;95534.00;;;1.51;100.00
47763;BME280;33526;42.690;23.322;2023-12-29T07:44:36;95422.47;;;0.67;100.00
47763;BME280;33526;42.690;23.322;2023-12-29T07:47:03;95499.47;;;1.25;100.00
47763;BME280;33526;42.690;23.322;2023-12-29T07:49:28;95501.88;;;0.94;100.00
47763;BME280;33526;42.690;23.322;2023-12-29T07:51:54;95525.47;;;0.41;100.00
47763;BME280;33526;42.690;23.322;2023-12-29T07:54:20;95553.81;;;0.63;100.00
47763;BME280;33526;42.690;23.322;2023-12-29T07:56:47;95522.31;;;0.28;100.00
47763;BME280;33526;42.690;23.322;2023-12-29T07:59:13;95511.28;;;0.21;100.00
47763;BME280;33526;42.690;23.322;2023-12-29T08:01:39;95686.00;;;1.13;100.00
47763;BME280;33526;42.690;23.322;2023-12-29T08:04:05;95628.94;;;0.82;100.00
47763;BME280;33526;42.690;23.322;2023-12-29T08:06:32;95588.34;;;0.35;100.00
47763;BME280;33526;42.690;23.322;2023-12-29T08:08:57;95585.19;;;0.30;100.00
47763;BME280;33526;42.690;23.322;2023-12-29T08:11:23;95519.13;;;0.05;100.00
47763;BME280;33526;42.690;23.322;2023-12-29T08:13:48;95510.47;;;-0.05;100.00
47763;BME280;33526;42.690;23.322;2023-12-29T08:16:15;95423.97;;;-0.57;100.00
47763;BME280;33526;42.690;23.322;2023-12-29T08:18:43;95576.94;;;0.33;100.00
47763;BME280;33526;42.690;23.322;2023-12-29T08:21:08;95416.88;;;-0.59;100.00
47763;BME280;33526;42.690;23.322;2023-12-29T08:23:34;95422.41;;;-0.44;100.00
47763;BME280;33526;42.690;23.322;2023-12-29T08:26:02;95618.31;;;0.80;100.00
47763;BME280;33526;42.690;23.322;2023-12-29T08:28:28;95589.59;;;0.63;100.00
47763;BME280;33526;42.690;23.322;2023-12-29T08:30:54;95462.53;;;-0.18;100.00
47763;BME280;33526;42.690;23.322;2023-12-29T08:33:19;95632.09;;;0.91;100.00
47763;BME280;33526;42.690;23.322;2023-12-29T08:35:45;95546.72;;;0.51;100.00
47763;BME280;33526;42.690;23.322;2023-12-29T08:38:11;95578.19;;;0.97;100.00
47763;BME280;33526;42.690;23.322;2023-12-29T08:40:37;95630.88;;;1.42;100.00
47763;BME280;33526;42.690;23.322;2023-12-29T08:43:02;95606.50;;;1.37;100.00
47763;BME280;33526;42.690;23.322;2023-12-29T08:45:27;95571.09;;;1.25;100.00
47763;BME280;33526;42.690;23.322;2023-12-29T08:47:53;95586.78;;;1.42;100.00
47763;BME280;33526;42.690;23.322;2023-12-29T08:50:19;95639.47;;;1.95;100.00
47763;BME280;33526;42.690;23.322;2023-12-29T08:52:46;95600.38;;;2.07;100.00
47763;BME280;33526;42.690;23.322;2023-12-29T08:55:11;95536.34;;;1.63;100.00
47763;BME280;33526;42.690;23.322;2023-12-29T08:57:37;95638.81;;;2.54;100.00
47763;BME280;33526;42.690;23.322;2023-12-29T09:00:05;95639.81;;;2.89;100.00
47763;BME280;33526;42.690;23.322;2023-12-29T09:02:30;95574.53;;;2.53;100.00
47763;BME280;33526;42.690;23.322;2023-12-29T09:04:56;95521.84;;;2.29;100.00
47763;BME280;33526;42.690;23.322;2023-12-29T09:07:22;95608.91;;;3.04;100.00
47763;BME280;33526;42.690;23.322;2023-12-29T09:09:48;95597.81;;;3.12;100.00
47763;BME280;33526;42.690;23.322;2023-12-29T09:12:14;95529.78;;;2.80;100.00
47763;BME280;33526;42.690;23.322;2023-12-29T09:14:39;95481.41;;;2.61;100.00
47763;BME280;33526;42.690;23.322;2023-12-29T09:17:05;95560.97;;;3.22;100.00
47763;BME280;33526;42.690;23.322;2023-12-29T09:19:30;95552.56;;;3.36;100.00
47763;BME280;33526;42.690;23.322;2023-12-29T09:21:56;95564.25;;;3.55;100.00
47763;BME280;33526;42.690;23.322;2023-12-29T09:24:21;95509.97;;;3.30;100.00
47763;BME280;33526;42.690;23.322;2023-12-29T09:26:47;95605.13;;;4.09;100.00
47763;BME280;33526;42.690;23.322;2023-12-29T09:29:12;95476.38;;;3.35;100.00
47763;BME280;33526;42.690;23.322;2023-12-29T09:31:39;95529.97;;;3.79;100.00
47763;BME280;33526;42.690;23.322;2023-12-29T09:34:05;95554.63;;;4.01;100.00
47763;BME280;33526;42.690;23.322;2023-12-29T09:36:30;95573.44;;;4.13;100.00
47763;BME280;33526;42.690;23.322;2023-12-29T09:38:56;95434.94;;;3.32;100.00
47763;BME280;33526;42.690;23.322;2023-12-29T09:41:23;95493.66;;;3.77;100.00
47763;BME280;33526;42.690;23.322;2023-12-29T09:43:50;95387.25;;;3.24;100.00
47763;BME280;33526;42.690;23.322;2023-12-29T09:46:21;95487.47;;;3.97;100.00
47763;BME280;33526;42.690;23.322;2023-12-29T09:48:51;95528.44;;;4.09;100.00
47763;BME280;33526;42.690;23.322;2023-12-29T09:51:17;95452.06;;;3.54;100.00
47763;BME280;33526;42.690;23.322;2023-12-29T09:53:48;95542.72;;;4.04;100.00
47763;BME280;33526;42.690;23.322;2023-12-29T09:56:15;95567.31;;;4.29;100.00
47763;BME280;33526;42.690;23.322;2023-12-29T09:58:42;95544.44;;;4.25;100.00
47763;BME280;33526;42.690;23.322;2023-12-29T10:01:08;95538.38;;;4.34;100.00
47763;BME280;33526;42.690;23.322;2023-12-29T10:03:34;95607.22;;;4.63;100.00
47763;BME280;33526;42.690;23.322;2023-12-29T10:06:00;95475.31;;;3.91;100.00
47763;BME280;33526;42.690;23.322;2023-12-29T10:08:29;95569.03;;;4.50;100.00
47763;BME280;33526;42.690;23.322;2023-12-29T10:10:57;95438.66;;;3.83;100.00
47763;BME280;33526;42.690;23.322;2023-12-29T10:13:24;95482.25;;;4.02;100.00
47763;BME280;33526;42.690;23.322;2023-12-29T10:18:44;95536.56;;;4.78;100.00
47763;BME280;33526;42.690;23.322;2023-12-29T10:24:01;95484.44;;;4.69;100.00
47763;BME280;33526;42.690;23.322;2023-12-29T10:26:28;95540.69;;;5.17;100.00
47763;BME280;33526;42.690;23.322;2023-12-29T10:28:55;95522.66;;;5.29;100.00
47763;BME280;33526;42.690;23.322;2023-12-29T10:31:22;95451.06;;;5.00;100.00
47763;BME280;33526;42.690;23.322;2023-12-29T10:33:48;95497.44;;;5.43;100.00
47763;BME280;33526;42.690;23.322;2023-12-29T10:36:16;95506.63;;;5.60;100.00
47763;BME280;33526;42.690;23.322;2023-12-29T10:38:42;95410.19;;;5.08;100.00
47763;BME280;33526;42.690;23.322;2023-12-29T10:41:17;95496.59;;;5.86;100.00
47763;BME280;33526;42.690;23.322;2023-12-29T10:43:46;95400.09;;;5.38;100.00
47763;BME280;33526;42.690;23.322;2023-12-29T10:46:17;95447.56;;;5.80;100.00
47763;BME280;33526;42.690;23.322;2023-12-29T10:48:46;95480.53;;;6.18;100.00
47763;BME280;33526;42.690;23.322;2023-12-29T10:51:13;95491.81;;;6.27;100.00
47763;BME280;33526;42.690;23.322;2023-12-29T10:53:39;95482.78;;;6.23;100.00
47763;BME280;33526;42.690;23.322;2023-12-29T10:56:17;95509.41;;;6.57;100.00
47763;BME280;33526;42.690;23.322;2023-12-29T10:58:57;95341.91;;;5.54;100.00
47763;BME280;33526;42.690;23.322;2023-12-29T11:01:31;95442.53;;;6.31;100.00
47763;BME280;33526;42.690;23.322;2023-12-29T11:04:02;95275.56;;;5.07;100.00
47763;BME280;33526;42.690;23.322;2023-12-29T11:06:29;95309.94;;;5.29;100.00
47763;BME280;33526;42.690;23.322;2023-12-29T11:08:55;95433.25;;;6.01;100.00
47763;BME280;33526;42.690;23.322;2023-12-29T11:11:21;95368.63;;;5.64;100.00
47763;BME280;33526;42.690;23.322;2023-12-29T11:13:48;95396.44;;;5.81;100.00
47763;BME280;33526;42.690;23.322;2023-12-29T11:16:16;95354.97;;;5.73;100.00
47763;BME280;33526;42.690;23.322;2023-12-29T11:18:47;95429.16;;;6.26;100.00
47763;BME280;33526;42.690;23.322;2023-12-29T11:21:15;95304.81;;;5.48;100.00
47763;BME280;33526;42.690;23.322;2023-12-29T11:23:42;95282.78;;;5.41;100.00
47763;BME280;33526;42.690;23.322;2023-12-29T11:26:08;95360.41;;;5.97;100.00
47763;BME280;33526;42.690;23.322;2023-12-29T11:28:34;95458.53;;;6.60;100.00
47763;BME280;33526;42.690;23.322;2023-12-29T11:31:00;95456.63;;;6.57;100.00
47763;BME280;33526;42.690;23.322;2023-12-29T11:33:39;95386.38;;;6.23;100.00
47763;BME280;33526;42.690;23.322;2023-12-29T11:38:57;95455.06;;;6.72;100.00
47763;BME280;33526;42.690;23.322;2023-12-29T11:44:04;95417.72;;;6.73;100.00
47763;BME280;33526;42.690;23.322;2023-12-29T11:46:34;95391.16;;;6.56;100.00
47763;BME280;33526;42.690;23.322;2023-12-29T11:49:00;95446.69;;;7.21;100.00
47763;BME280;33526;42.690;23.322;2023-12-29T11:51:34;95380.78;;;6.89;100.00
47763;BME280;33526;42.690;23.322;2023-12-29T11:54:01;95408.38;;;7.13;100.00
47763;BME280;33526;42.690;23.322;2023-12-29T11:56:31;95445.47;;;7.52;100.00
47763;BME280;33526;42.690;23.322;2023-12-29T11:59:19;95427.16;;;7.38;100.00
47763;BME280;33526;42.690;23.322;2023-12-29T12:01:47;95429.59;;;7.65;100.00
47763;BME280;33526;42.690;23.322;2023-12-29T12:07:16;95421.09;;;7.85;98.75
47763;BME280;33526;42.690;23.322;2023-12-29T12:09:42;95376.47;;;7.59;98.13
47763;BME280;33526;42.690;23.322;2023-12-29T12:12:07;95435.03;;;7.98;97.35
47763;BME280;33526;42.690;23.322;2023-12-29T12:14:52;95392.44;;;7.84;96.69
47763;BME280;33526;42.690;23.322;2023-12-29T12:17:29;95430.59;;;8.26;99.70
47763;BME280;33526;42.690;23.322;2023-12-29T12:20:04;95437.19;;;8.32;96.46
47763;BME280;33526;42.690;23.322;2023-12-29T12:22:31;95424.91;;;8.30;94.58
47763;BME280;33526;42.690;23.322;2023-12-29T12:24:58;95379.22;;;8.01;93.87
47763;BME280;33526;42.690;23.322;2023-12-29T12:27:25;95393.72;;;8.22;93.94
47763;BME280;33526;42.690;23.322;2023-12-29T12:29:55;95360.50;;;8.15;97.52
47763;BME280;33526;42.690;23.322;2023-12-29T12:32:23;95407.75;;;8.57;92.47
47763;BME280;33526;42.690;23.322;2023-12-29T12:34:50;95424.69;;;8.75;89.22
47763;BME280;33526;42.690;23.322;2023-12-29T12:39:47;95439.81;;;9.00;86.25
47763;BME280;33526;42.690;23.322;2023-12-29T12:42:13;95316.25;;;8.30;85.59
47763;BME280;33526;42.690;23.322;2023-12-29T12:44:41;95433.75;;;9.14;84.35
47763;BME280;33526;42.690;23.322;2023-12-29T12:47:10;95425.47;;;9.24;83.13
47763;BME280;33526;42.690;23.322;2023-12-29T12:49:40;95385.28;;;8.99;80.95
47763;BME280;33526;42.690;23.322;2023-12-29T12:52:06;95390.00;;;9.24;80.60
47763;BME280;33526;42.690;23.322;2023-12-29T12:57:27;95401.88;;;9.60;77.76
47763;BME280;33526;42.690;23.322;2023-12-29T12:59:54;95420.69;;;9.68;77.58
47763;BME280;33526;42.690;23.322;2023-12-29T13:02:20;95410.13;;;9.63;76.74
47763;BME280;33526;42.690;23.322;2023-12-29T13:04:46;95414.94;;;9.63;76.71
47763;BME280;33526;42.690;23.322;2023-12-29T13:07:15;95318.66;;;9.23;76.24
47763;BME280;33526;42.690;23.322;2023-12-29T13:09:41;95420.44;;;9.98;75.11
47763;BME280;33526;42.690;23.322;2023-12-29T13:12:10;95425.91;;;10.01;74.11